Time;durP1;ratioP1;P1;durP2;ratioP2;P2;SDS_P1;SDS_P2;PMS_P1;PMS_P2;Temp;Humidity;BMP_temperature;BMP_pressure;BME280_temperature;BME280_humidity;BME280_pressure;Samples;Min_cycle;Max_cycle;Signal;HPM_P1;HPM_P2
2021/01/09 00:02:27;;;;;;;21.20;17.93;;;5.60;94.00;;;;;;5089871;28;20632;-50
2021/01/09 00:04:53;;;;;;;24.30;18.97;;;5.60;94.00;;;;;;5088656;28;20656;-51
2021/01/09 00:07:20;;;;;;;22.37;17.97;;;5.60;93.90;;;;;;5085099;28;20661;-50
2021/01/09 00:09:47;;;;;;;21.80;17.90;;;5.60;93.90;;;;;;5069282;28;20698;-50
2021/01/09 00:12:14;;;;;;;22.20;16.53;;;5.70;93.80;;;;;;5069641;28;20630;-50
2021/01/09 00:14:40;;;;;;;21.53;16.03;;;5.60;93.70;;;;;;5072918;28;20692;-50
2021/01/09 00:17:07;;;;;;;23.87;15.87;;;5.60;93.80;;;;;;5071703;28;20657;-51
2021/01/09 00:19:35;;;;;;;19.50;16.70;;;5.60;93.90;;;;;;5069589;28;20687;-49
2021/01/09 00:22:02;;;;;;;27.10;20.30;;;5.50;94.00;;;;;;5074745;28;21172;-51
2021/01/09 00:24:29;;;;;;;22.60;18.50;;;5.40;94.10;;;;;;5089231;28;21211;-50
2021/01/09 00:26:55;;;;;;;24.83;17.93;;;5.40;94.30;;;;;;5089786;28;20684;-51
2021/01/09 00:29:22;;;;;;;22.00;18.97;;;5.40;94.40;;;;;;5089688;28;21180;-50
2021/01/09 00:31:49;;;;;;;22.13;19.30;;;5.40;94.40;;;;;;5088428;28;21228;-52
2021/01/09 00:34:16;;;;;;;22.43;18.53;;;5.40;94.50;;;;;;5087132;28;21175;-50
2021/01/09 00:36:50;;;;;;;25.23;20.33;;;5.40;94.40;;;;;;5089235;28;20763;-51
2021/01/09 00:39:17;;;;;;;25.37;21.27;;;5.40;94.50;;;;;;5089534;28;21248;-51
2021/01/09 00:41:43;;;;;;;26.43;20.10;;;5.50;94.50;;;;;;5085157;28;20740;-52
2021/01/09 00:44:10;;;;;;;24.37;20.23;;;5.50;94.40;;;;;;5069181;28;20661;-52
2021/01/09 00:46:37;;;;;;;25.80;20.60;;;5.60;94.20;;;;;;5076009;28;21269;-50
2021/01/09 00:49:04;;;;;;;23.47;20.40;;;5.60;94.20;;;;;;5090231;28;20678;-51
2021/01/09 00:51:30;;;;;;;23.50;19.83;;;5.60;94.10;;;;;;5089964;28;20702;-51
2021/01/09 00:53:58;;;;;;;20.87;17.70;;;5.60;94.10;;;;;;5089733;28;20673;-51
2021/01/09 00:56:25;;;;;;;21.50;18.40;;;5.70;94.00;;;;;;5089842;28;20660;-51
2021/01/09 00:58:52;;;;;;;21.03;17.70;;;5.60;93.70;;;;;;5089644;28;20720;-52
2021/01/09 01:01:19;;;;;;;22.13;18.13;;;5.60;93.80;;;;;;5088471;28;20628;-52
2021/01/09 01:03:45;;;;;;;23.27;18.83;;;5.60;93.80;;;;;;5078109;28;20709;-51
2021/01/09 01:06:12;;;;;;;18.60;16.23;;;5.60;93.80;;;;;;5089724;28;21175;-52
2021/01/09 01:08:39;;;;;;;19.83;15.33;;;5.50;93.80;;;;;;5076316;28;20630;-52
2021/01/09 01:11:07;;;;;;;19.20;14.93;;;5.50;93.80;;;;;;5069578;28;20682;-51
2021/01/09 01:13:34;;;;;;;18.90;15.00;;;5.50;93.70;;;;;;5069204;28;21243;-50
2021/01/09 01:16:01;;;;;;;18.53;16.50;;;5.40;93.80;;;;;;5068602;28;21205;-46
2021/01/09 01:18:28;;;;;;;19.90;16.07;;;5.40;93.70;;;;;;5068614;28;20636;-49
2021/01/09 01:20:54;;;;;;;19.13;15.20;;;5.40;93.80;;;;;;5082230;28;20905;-50
2021/01/09 01:23:21;;;;;;;18.30;15.27;;;5.40;93.70;;;;;;5071125;28;20629;-50
2021/01/09 01:25:48;;;;;;;18.20;15.00;;;5.40;93.30;;;;;;5089520;28;20752;-50
2021/01/09 01:28:16;;;;;;;16.50;13.93;;;5.30;93.30;;;;;;5089509;28;20640;-49
2021/01/09 01:30:43;;;;;;;19.80;17.47;;;5.20;93.40;;;;;;5089259;28;20969;-50
2021/01/09 01:33:09;;;;;;;15.83;13.17;;;5.20;93.50;;;;;;5089435;28;21060;-49
2021/01/09 01:35:36;;;;;;;15.77;13.30;;;5.20;93.50;;;;;;5088965;28;20624;-49
2021/01/09 01:38:03;;;;;;;17.60;15.13;;;5.20;93.60;;;;;;5089056;28;20620;-50
2021/01/09 01:40:29;;;;;;;19.00;16.17;;;5.30;93.50;;;;;;5089296;28;20663;-50
2021/01/09 01:42:56;;;;;;;17.50;13.97;;;5.40;93.50;;;;;;5089458;28;20628;-50
2021/01/09 01:45:24;;;;;;;17.20;14.30;;;5.40;93.30;;;;;;5088308;28;20686;-50
2021/01/09 01:47:51;;;;;;;18.73;16.60;;;5.50;93.30;;;;;;5088828;28;20681;-50
2021/01/09 01:50:18;;;;;;;20.17;15.33;;;5.50;93.20;;;;;;5088830;28;20681;-50
2021/01/09 01:52:44;;;;;;;16.97;13.50;;;5.60;93.10;;;;;;5089353;28;20636;-50
2021/01/09 01:55:11;;;;;;;19.00;14.67;;;5.60;92.90;;;;;;5090117;28;20669;-48
2021/01/09 01:57:38;;;;;;;16.80;13.00;;;5.60;92.70;;;;;;5088943;28;20815;-49
2021/01/09 02:00:06;;;;;;;15.87;14.17;;;5.70;93.00;;;;;;5088514;28;20701;-49
2021/01/09 02:02:34;;;;;;;17.17;13.47;;;5.70;92.30;;;;;;5088313;28;20673;-49
2021/01/09 02:05:02;;;;;;;14.53;12.73;;;5.70;92.20;;;;;;5088699;28;20787;-49
2021/01/09 02:07:31;;;;;;;16.50;13.30;;;5.80;92.20;;;;;;5088470;28;20675;-49
2021/01/09 02:09:57;;;;;;;16.00;12.93;;;5.80;92.10;;;;;;5088797;28;20671;-48
2021/01/09 02:12:27;;;;;;;15.17;12.97;;;5.90;91.90;;;;;;5089238;28;20625;-49
2021/01/09 02:14:56;;;;;;;13.10;11.70;;;5.90;91.60;;;;;;5089735;28;20650;-48
2021/01/09 02:17:23;;;;;;;14.43;11.80;;;5.90;91.50;;;;;;5088680;28;20892;-48
2021/01/09 02:19:50;;;;;;;15.97;12.50;;;5.90;91.40;;;;;;5070282;28;20636;-48
2021/01/09 02:22:18;;;;;;;13.67;11.17;;;5.90;91.30;;;;;;5088651;28;20633;-48
2021/01/09 02:24:46;;;;;;;13.30;11.90;;;5.90;91.30;;;;;;5088680;28;20720;-48
2021/01/09 02:27:13;;;;;;;13.77;11.00;;;5.80;91.30;;;;;;5090163;28;20645;-48
2021/01/09 02:29:43;;;;;;;14.30;10.23;;;5.80;91.30;;;;;;5092545;28;20736;-48
2021/01/09 02:32:10;;;;;;;15.23;11.20;;;5.80;91.30;;;;;;5092408;28;20704;-49
2021/01/09 02:34:40;;;;;;;12.20;10.67;;;5.80;91.10;;;;;;5091841;28;21187;-48
2021/01/09 02:37:07;;;;;;;17.37;12.20;;;5.70;91.00;;;;;;5092220;28;20972;-48
2021/01/09 02:39:34;;;;;;;16.87;11.40;;;5.70;91.00;;;;;;5093151;28;20620;-49
2021/01/09 02:42:02;;;;;;;13.17;11.50;;;5.80;90.90;;;;;;5086282;28;20671;-48
2021/01/09 02:44:28;;;;;;;13.63;11.13;;;5.70;90.60;;;;;;5092144;28;20725;-48
2021/01/09 02:46:55;;;;;;;13.90;10.97;;;5.70;90.50;;;;;;5091685;28;21040;-48
2021/01/09 02:49:22;;;;;;;14.33;11.80;;;5.70;90.50;;;;;;5072001;28;21169;-48
2021/01/09 02:51:49;;;;;;;14.53;11.10;;;5.80;90.40;;;;;;5076257;28;20667;-49
2021/01/09 02:54:15;;;;;;;14.60;11.70;;;5.80;90.30;;;;;;5090918;28;20616;-48
2021/01/09 02:56:42;;;;;;;12.93;11.00;;;5.80;90.30;;;;;;5086278;28;20664;-49
2021/01/09 02:59:10;;;;;;;13.80;10.57;;;5.80;90.10;;;;;;5089313;28;21023;-49
2021/01/09 03:01:36;;;;;;;14.47;11.20;;;5.70;90.10;;;;;;5092012;28;20643;-48
2021/01/09 03:04:03;;;;;;;15.93;11.17;;;5.70;90.20;;;;;;5091716;28;20662;-48
2021/01/09 03:06:30;;;;;;;11.43;9.50;;;5.70;90.20;;;;;;5091685;28;20701;-48
2021/01/09 03:08:57;;;;;;;13.50;10.60;;;5.70;90.40;;;;;;5091330;28;20632;-48
2021/01/09 03:11:23;;;;;;;14.97;12.73;;;5.80;90.50;;;;;;5092183;28;21193;-48
2021/01/09 03:13:50;;;;;;;14.87;11.60;;;5.80;90.50;;;;;;5091009;28;20613;-48
2021/01/09 03:16:18;;;;;;;13.33;11.47;;;5.80;90.40;;;;;;5091049;28;20759;-49
2021/01/09 03:18:45;;;;;;;13.37;11.87;;;5.70;90.30;;;;;;5091368;28;20628;-48
2021/01/09 03:21:11;;;;;;;16.57;12.57;;;5.70;90.30;;;;;;5090897;28;20621;-48
2021/01/09 03:23:38;;;;;;;13.17;11.80;;;5.70;90.40;;;;;;5091180;28;20640;-48
2021/01/09 03:26:05;;;;;;;12.93;11.00;;;5.70;90.40;;;;;;5090703;28;20725;-48
2021/01/09 03:28:31;;;;;;;15.23;11.90;;;5.70;90.50;;;;;;5091325;28;20759;-48
2021/01/09 03:30:58;;;;;;;13.60;10.90;;;5.80;90.80;;;;;;5091298;28;20716;-48
2021/01/09 03:33:26;;;;;;;15.27;11.30;;;5.80;90.50;;;;;;5090762;28;20982;-48
2021/01/09 03:35:52;;;;;;;13.70;10.97;;;5.90;90.60;;;;;;5090739;28;20714;-48
2021/01/09 03:38:19;;;;;;;14.00;11.43;;;5.90;90.50;;;;;;5089950;28;20667;-48
2021/01/09 03:40:46;;;;;;;14.93;11.97;;;5.90;90.30;;;;;;5086031;28;20634;-48
2021/01/09 03:43:13;;;;;;;12.93;11.57;;;5.90;90.00;;;;;;5090495;28;20620;-48
2021/01/09 03:45:39;;;;;;;13.53;11.17;;;5.90;89.70;;;;;;5090407;28;20741;-49
2021/01/09 03:48:07;;;;;;;15.03;11.00;;;5.90;89.30;;;;;;5090623;28;20616;-49
2021/01/09 03:50:34;;;;;;;12.90;10.60;;;5.80;89.50;;;;;;5090849;28;20626;-49
2021/01/09 03:53:01;;;;;;;16.50;13.07;;;5.70;89.70;;;;;;5090724;28;20629;-48
2021/01/09 03:55:28;;;;;;;12.37;10.60;;;5.80;89.90;;;;;;5090564;28;21144;-48
2021/01/09 03:57:55;;;;;;;13.23;10.77;;;5.70;89.50;;;;;;5090735;28;20632;-49
2021/01/09 04:00:21;;;;;;;14.37;11.67;;;5.80;89.30;;;;;;5089615;28;20643;-49
2021/01/09 04:02:48;;;;;;;14.33;10.40;;;5.80;89.10;;;;;;5089988;28;21229;-49
2021/01/09 04:05:15;;;;;;;13.87;12.33;;;5.80;88.90;;;;;;5090382;28;20730;-48
2021/01/09 04:07:42;;;;;;;11.10;9.93;;;5.80;88.40;;;;;;5090145;28;21027;-48
2021/01/09 04:10:09;;;;;;;14.77;11.83;;;5.70;88.30;;;;;;5090551;28;20628;-48
2021/01/09 04:12:36;;;;;;;13.13;10.10;;;5.70;88.80;;;;;;5090373;28;20728;-49
2021/01/09 04:15:04;;;;;;;11.73;10.23;;;5.80;88.70;;;;;;5091009;28;21155;-48
2021/01/09 04:17:31;;;;;;;13.53;11.00;;;5.80;88.40;;;;;;5090584;28;20660;-49
2021/01/09 04:19:58;;;;;;;12.07;10.53;;;5.80;88.00;;;;;;5090739;28;20634;-48
2021/01/09 04:22:24;;;;;;;14.73;10.50;;;5.80;87.90;;;;;;5090820;28;20705;-48
2021/01/09 04:24:52;;;;;;;13.10;10.07;;;5.90;88.10;;;;;;5071835;28;20660;-49
2021/01/09 04:27:19;;;;;;;12.80;10.70;;;5.90;88.00;;;;;;5090299;28;20736;-49
2021/01/09 04:29:46;;;;;;;12.00;10.27;;;5.90;88.00;;;;;;5090642;28;20639;-49
2021/01/09 04:32:12;;;;;;;11.27;9.73;;;5.90;88.10;;;;;;5090263;28;21177;-49
2021/01/09 04:34:39;;;;;;;13.87;10.33;;;5.90;88.10;;;;;;5089812;28;20650;-49
2021/01/09 04:37:06;;;;;;;13.10;10.93;;;5.90;88.10;;;;;;5089601;28;20656;-49
2021/01/09 04:39:32;;;;;;;14.27;10.33;;;5.90;87.90;;;;;;5087983;28;20638;-49
2021/01/09 04:42:00;;;;;;;12.13;9.53;;;5.90;88.40;;;;;;5089744;28;20998;-49
2021/01/09 04:44:27;;;;;;;12.03;10.73;;;5.90;87.70;;;;;;5062779;28;20665;-49
2021/01/09 04:46:54;;;;;;;14.10;11.57;;;5.80;87.30;;;;;;5089180;28;20652;-49
2021/01/09 04:49:22;;;;;;;11.60;10.40;;;5.80;87.10;;;;;;5089484;28;20681;-49
2021/01/09 04:51:49;;;;;;;14.07;11.30;;;5.80;87.10;;;;;;5089063;28;20664;-49
2021/01/09 04:54:16;;;;;;;13.07;11.57;;;5.80;87.40;;;;;;5090139;28;21098;-49
2021/01/09 04:56:44;;;;;;;13.00;11.60;;;5.80;87.20;;;;;;5089704;28;21261;-49
2021/01/09 04:59:12;;;;;;;13.17;10.87;;;5.80;87.40;;;;;;5070797;28;20636;-49
2021/01/09 05:01:39;;;;;;;16.13;11.37;;;5.70;87.20;;;;;;5089468;28;20628;-49
2021/01/09 05:04:06;;;;;;;12.03;10.70;;;5.70;87.30;;;;;;5089308;28;21197;-49
2021/01/09 05:06:33;;;;;;;11.60;10.40;;;5.70;87.40;;;;;;5089395;28;20690;-49
2021/01/09 05:08:59;;;;;;;13.97;11.47;;;5.80;87.40;;;;;;5071097;28;20987;-49
2021/01/09 05:11:26;;;;;;;15.23;11.47;;;5.80;87.20;;;;;;5078518;28;20626;-49
2021/01/09 05:13:53;;;;;;;12.17;9.63;;;5.80;87.20;;;;;;5089057;28;20628;-49
2021/01/09 05:16:20;;;;;;;12.77;11.10;;;5.80;87.10;;;;;;5088718;28;20667;-49
2021/01/09 05:18:47;;;;;;;13.90;10.60;;;5.80;87.50;;;;;;5089094;28;20668;-49
2021/01/09 05:21:14;;;;;;;12.43;11.13;;;5.80;87.70;;;;;;5089600;28;20678;-49
2021/01/09 05:23:52;;;;;;;12.13;9.00;;;5.80;87.80;;;;;;5089458;28;20629;-49
2021/01/09 05:26:19;;;;;;;14.50;12.27;;;5.90;87.70;;;;;;5089521;28;20692;-48
2021/01/09 05:28:49;;;;;;;13.70;10.60;;;5.90;87.80;;;;;;5080990;28;20660;-48
2021/01/09 05:31:16;;;;;;;12.00;10.20;;;5.90;87.60;;;;;;5068392;28;21031;-49
2021/01/09 05:33:44;;;;;;;13.73;11.30;;;6.00;87.60;;;;;;5068596;28;20692;-49
2021/01/09 05:36:11;;;;;;;13.40;10.83;;;6.00;87.40;;;;;;5069103;28;20687;-48
2021/01/09 05:38:38;;;;;;;15.23;11.20;;;6.00;87.50;;;;;;5068953;28;20644;-48
2021/01/09 05:41:06;;;;;;;13.00;11.27;;;6.00;87.60;;;;;;5080176;28;20985;-48
2021/01/09 05:43:32;;;;;;;15.37;11.57;;;6.10;87.70;;;;;;5068666;28;21304;-48
2021/01/09 05:45:59;;;;;;;13.80;9.70;;;6.10;87.80;;;;;;5073784;28;20693;-48
2021/01/09 05:48:26;;;;;;;15.47;11.87;;;6.10;87.70;;;;;;5088765;28;20629;-48
2021/01/09 05:50:54;;;;;;;20.23;12.17;;;6.10;87.50;;;;;;5088481;28;20621;-48
2021/01/09 05:53:41;;;;;;;14.67;11.73;;;6.10;87.50;;;;;;5088963;28;20654;-48
2021/01/09 05:56:08;;;;;;;13.33;11.20;;;6.10;87.60;;;;;;5088529;28;21033;-47
2021/01/09 05:58:35;;;;;;;18.20;11.30;;;6.10;87.60;;;;;;5088873;28;20981;-48
2021/01/09 06:01:05;;;;;;;13.90;11.20;;;6.10;87.70;;;;;;5088130;28;20629;-48
2021/01/09 06:03:39;;;;;;;16.90;10.70;;;6.10;87.60;;;;;;5092640;28;20629;-48
2021/01/09 06:06:13;;;;;;;14.80;10.53;;;6.10;87.10;;;;;;5092171;28;20658;-48
2021/01/09 06:08:41;;;;;;;22.20;11.00;;;6.20;87.30;;;;;;5077376;28;20701;-49
2021/01/09 06:11:09;;;;;;;13.53;10.83;;;6.20;87.40;;;;;;5072531;28;20674;-48
2021/01/09 06:13:36;;;;;;;13.30;10.73;;;6.20;87.20;;;;;;5071850;28;20633;-48
2021/01/09 06:16:04;;;;;;;11.97;9.43;;;6.20;86.90;;;;;;5073066;28;20864;-48
2021/01/09 06:18:31;;;;;;;15.13;11.13;;;6.20;86.80;;;;;;5092295;28;20998;-49
2021/01/09 06:20:58;;;;;;;14.20;11.43;;;6.20;86.90;;;;;;5092071;28;20693;-49
2021/01/09 06:23:25;;;;;;;11.50;10.27;;;6.10;86.80;;;;;;5092056;28;20662;-48
2021/01/09 06:25:52;;;;;;;16.13;12.33;;;6.10;87.00;;;;;;5092193;28;20762;-48
2021/01/09 06:28:21;;;;;;;11.23;9.87;;;6.20;86.90;;;;;;5092107;28;20621;-48
2021/01/09 06:30:50;;;;;;;18.50;12.47;;;6.20;86.90;;;;;;5091270;28;20671;-48
2021/01/09 06:33:17;;;;;;;16.50;12.20;;;6.20;87.10;;;;;;5071970;28;20641;-48
2021/01/09 06:35:44;;;;;;;15.53;11.20;;;6.20;87.20;;;;;;5071514;28;20655;-48
2021/01/09 06:38:11;;;;;;;13.50;10.50;;;6.20;87.30;;;;;;5071717;28;20630;-48
2021/01/09 06:40:39;;;;;;;10.93;9.80;;;6.20;87.60;;;;;;5071679;28;20621;-48
2021/01/09 06:43:06;;;;;;;15.20;11.03;;;6.20;87.70;;;;;;5083658;28;20953;-49
2021/01/09 06:45:33;;;;;;;15.17;10.97;;;6.20;87.50;;;;;;5091605;28;20658;-49
2021/01/09 06:48:00;;;;;;;14.30;11.00;;;6.20;87.30;;;;;;5091583;28;21009;-48
2021/01/09 06:50:31;;;;;;;14.57;10.83;;;6.20;86.90;;;;;;5091808;28;20635;-48
2021/01/09 06:52:58;;;;;;;11.60;9.90;;;6.20;86.90;;;;;;5091664;28;20687;-49
2021/01/09 06:56:04;;;;;;;15.70;11.33;;;6.20;86.90;;;;;;5091190;28;20640;-48
2021/01/09 06:58:32;;;;;;;13.27;9.77;;;6.20;86.30;;;;;;5091312;28;20638;-48
2021/01/09 07:01:21;;;;;;;20.63;12.97;;;6.20;86.80;;;;;;5092166;28;20618;-48
2021/01/09 07:03:48;;;;;;;13.10;10.43;;;6.20;85.90;;;;;;5091069;28;20689;-49
2021/01/09 07:06:14;;;;;;;14.73;10.60;;;6.30;86.20;;;;;;5091262;28;20673;-48
2021/01/09 07:08:43;;;;;;;14.50;10.10;;;6.30;85.70;;;;;;5091452;28;21011;-48
2021/01/09 07:11:12;;;;;;;13.70;11.37;;;6.20;84.90;;;;;;5091223;28;20646;-48
2021/01/09 07:13:40;;;;;;;14.20;10.33;;;6.30;84.70;;;;;;5089384;28;20620;-48
2021/01/09 07:16:07;;;;;;;12.33;9.37;;;6.30;84.20;;;;;;5091072;28;20683;-49
2021/01/09 07:18:37;;;;;;;13.30;10.23;;;6.30;84.60;;;;;;5090782;28;20621;-48
2021/01/09 07:21:04;;;;;;;13.60;10.40;;;6.30;84.80;;;;;;5091149;28;20707;-48
2021/01/09 07:23:31;;;;;;;13.07;10.67;;;6.30;85.00;;;;;;5091273;28;20652;-48
2021/01/09 07:25:58;;;;;;;12.47;10.37;;;6.30;85.20;;;;;;5091060;28;21164;-48
2021/01/09 07:28:25;;;;;;;13.90;10.83;;;6.30;85.40;;;;;;5090353;28;20625;-49
2021/01/09 07:31:02;;;;;;;14.57;11.00;;;6.40;84.90;;;;;;5090697;28;20683;-48
2021/01/09 07:33:30;;;;;;;12.50;10.47;;;6.30;84.10;;;;;;5091169;28;20968;-49
2021/01/09 07:35:57;;;;;;;13.77;11.00;;;6.30;84.50;;;;;;5090832;28;20681;-49
2021/01/09 07:38:24;;;;;;;12.83;10.33;;;6.30;85.10;;;;;;5090313;28;20637;-48
2021/01/09 07:40:54;;;;;;;11.80;10.53;;;6.30;85.20;;;;;;5089751;28;21220;-48
2021/01/09 07:43:34;;;;;;;10.93;9.80;;;6.30;85.30;;;;;;5073975;28;20675;-49
2021/01/09 07:46:02;;;;;;;11.30;9.20;;;6.30;85.70;;;;;;5070167;28;21228;-49
2021/01/09 07:48:31;;;;;;;12.10;9.93;;;6.40;85.80;;;;;;5070271;28;20634;-48
2021/01/09 07:50:58;;;;;;;12.97;9.63;;;6.40;85.80;;;;;;5070387;28;20995;-48
2021/01/09 07:53:26;;;;;;;14.50;11.13;;;6.40;86.00;;;;;;5070040;28;20635;-49
2021/01/09 07:55:53;;;;;;;12.30;10.87;;;6.40;85.70;;;;;;5070159;28;20724;-48
2021/01/09 07:58:37;;;;;;;14.57;11.77;;;6.40;85.40;;;;;;5070611;28;20638;-48
2021/01/09 08:01:05;;;;;;;13.43;10.33;;;6.40;85.30;;;;;;5084736;28;20671;-49
2021/01/09 08:03:32;;;;;;;15.47;11.13;;;6.40;84.80;;;;;;5090377;28;20996;-50
2021/01/09 08:05:59;;;;;;;12.50;10.10;;;6.40;85.00;;;;;;5089969;28;20670;-49
2021/01/09 08:08:26;;;;;;;12.10;10.03;;;6.40;85.20;;;;;;5089912;28;21172;-48
2021/01/09 08:10:53;;;;;;;15.70;10.20;;;6.40;85.20;;;;;;5090974;28;20969;-48
2021/01/09 08:13:22;;;;;;;14.70;12.33;;;6.40;85.10;;;;;;5089986;28;21265;-48
2021/01/09 08:15:49;;;;;;;14.03;10.43;;;6.40;85.00;;;;;;5088307;28;20715;-48
2021/01/09 08:18:17;;;;;;;11.13;9.70;;;6.40;85.10;;;;;;5087390;28;20622;-48
2021/01/09 08:20:48;;;;;;;14.37;11.00;;;6.40;85.30;;;;;;5079150;28;20638;-49
2021/01/09 08:23:16;;;;;;;15.13;11.10;;;6.40;85.00;;;;;;5090385;28;20706;-49
2021/01/09 08:25:43;;;;;;;14.70;11.73;;;6.40;84.60;;;;;;5086523;28;20731;-49
2021/01/09 08:28:10;;;;;;;12.00;10.60;;;6.40;84.80;;;;;;5089907;28;21151;-49
2021/01/09 08:30:38;;;;;;;14.53;11.00;;;6.40;85.10;;;;;;5088068;28;20633;-49
2021/01/09 08:33:06;;;;;;;11.60;9.93;;;6.40;85.50;;;;;;5089790;28;20629;-49
2021/01/09 08:35:34;;;;;;;16.63;12.50;;;6.40;85.50;;;;;;5087961;28;20685;-49
2021/01/09 08:38:01;;;;;;;13.60;10.90;;;6.40;85.30;;;;;;5090081;28;20683;-49
2021/01/09 08:40:27;;;;;;;13.33;11.00;;;6.30;84.80;;;;;;5088266;28;20634;-49
2021/01/09 08:42:56;;;;;;;16.97;11.77;;;6.20;85.10;;;;;;5078777;28;20664;-49
2021/01/09 08:45:38;;;;;;;15.90;11.67;;;6.20;85.30;;;;;;5089255;28;20682;-49
2021/01/09 08:48:06;;;;;;;15.87;12.60;;;6.20;85.40;;;;;;5103994;28;20674;-49
2021/01/09 08:50:33;;;;;;;16.50;11.93;;;6.20;86.20;;;;;;5089864;28;20929;-49
2021/01/09 08:53:01;;;;;;;14.90;12.60;;;6.10;86.20;;;;;;5089800;28;20618;-50
2021/01/09 08:55:28;;;;;;;16.77;11.87;;;6.10;86.80;;;;;;5089210;28;20611;-50
2021/01/09 08:57:55;;;;;;;14.37;12.87;;;6.20;86.90;;;;;;5088569;28;20683;-50
2021/01/09 09:00:22;;;;;;;16.10;12.80;;;6.20;86.70;;;;;;5089059;28;21240;-50
2021/01/09 09:02:49;;;;;;;14.37;12.87;;;6.20;86.70;;;;;;5088985;28;21034;-50
2021/01/09 09:05:16;;;;;;;14.10;10.97;;;6.30;87.20;;;;;;5088234;28;20638;-50
2021/01/09 09:07:44;;;;;;;14.67;11.67;;;6.40;87.30;;;;;;5088381;28;20917;-50
2021/01/09 09:10:11;;;;;;;15.40;12.63;;;6.50;87.00;;;;;;5088351;28;20633;-50
2021/01/09 09:12:39;;;;;;;14.83;11.33;;;6.70;86.20;;;;;;5068548;28;20693;-50
2021/01/09 09:15:10;;;;;;;17.83;12.50;;;6.80;84.90;;;;;;5068861;28;20631;-50
2021/01/09 09:17:37;;;;;;;16.60;13.63;;;6.90;84.30;;;;;;5068908;28;20727;-51
2021/01/09 09:20:05;;;;;;;11.93;9.80;;;7.00;84.90;;;;;;5068855;28;20635;-51
2021/01/09 09:22:31;;;;;;;12.90;10.10;;;7.20;84.00;;;;;;5068988;28;21122;-51
2021/01/09 09:24:59;;;;;;;15.43;12.20;;;7.40;82.80;;;;;;5071213;28;21173;-50
2021/01/09 09:27:26;;;;;;;14.40;10.97;;;7.50;81.10;;;;;;5089083;28;20660;-51
2021/01/09 09:30:07;;;;;;;10.97;9.87;;;7.50;80.30;;;;;;5088978;28;20654;-51
2021/01/09 09:32:34;;;;;;;12.60;10.40;;;7.50;80.20;;;;;;5088886;28;20661;-50
2021/01/09 09:35:18;;;;;;;14.00;10.30;;;7.50;79.50;;;;;;5088693;28;20680;-51
2021/01/09 09:37:45;;;;;;;13.40;11.10;;;7.40;79.20;;;;;;5091828;28;20684;-50
2021/01/09 09:40:22;;;;;;;12.20;10.77;;;7.50;80.40;;;;;;5081646;28;20661;-51
2021/01/09 09:42:49;;;;;;;13.10;10.57;;;7.70;81.00;;;;;;5077393;28;20616;-51
2021/01/09 09:45:17;;;;;;;11.97;10.67;;;7.90;80.20;;;;;;5092450;28;20628;-51
2021/01/09 09:47:47;;;;;;;12.83;11.00;;;8.20;78.60;;;;;;5077061;28;20661;-50
2021/01/09 09:50:16;;;;;;;13.70;12.17;;;8.50;77.50;;;;;;5073313;28;20682;-49
2021/01/09 09:52:43;;;;;;;12.20;9.00;;;8.70;76.10;;;;;;5072552;28;20629;-50
2021/01/09 09:55:10;;;;;;;11.50;10.30;;;8.90;75.10;;;;;;5076548;28;20655;-50
2021/01/09 09:57:38;;;;;;;12.87;10.60;;;9.00;74.40;;;;;;5074468;28;20659;-52
2021/01/09 10:00:05;;;;;;;14.53;10.50;;;9.20;74.00;;;;;;5092348;28;20719;-51
2021/01/09 10:02:32;;;;;;;14.23;9.47;;;9.30;71.60;;;;;;5087427;28;20673;-49
2021/01/09 10:04:59;;;;;;;13.40;10.83;;;9.40;70.30;;;;;;5087393;28;20694;-50
2021/01/09 10:07:26;;;;;;;10.37;8.97;;;9.60;69.30;;;;;;5086630;28;20724;-49
2021/01/09 10:09:53;;;;;;;9.97;9.00;;;9.60;68.30;;;;;;5074641;28;21186;-49
2021/01/09 10:12:19;;;;;;;10.00;9.10;;;9.60;68.00;;;;;;5091946;28;21034;-49
2021/01/09 10:14:47;;;;;;;10.80;8.80;;;9.60;67.90;;;;;;5091700;28;20631;-50
2021/01/09 10:17:15;;;;;;;13.37;9.87;;;9.90;67.80;;;;;;5091379;28;21029;-50
2021/01/09 10:19:41;;;;;;;10.40;8.90;;;10.10;64.10;;;;;;5087913;28;20638;-50
2021/01/09 10:22:08;;;;;;;9.60;8.60;;;10.20;62.50;;;;;;5092060;28;21341;-49
2021/01/09 10:24:35;;;;;;;10.77;9.67;;;10.50;62.20;;;;;;5093051;28;20703;-48
2021/01/09 10:27:02;;;;;;;9.93;8.97;;;10.70;61.40;;;;;;5098299;28;20676;-49
2021/01/09 10:29:29;;;;;;;10.10;9.00;;;10.80;59.20;;;;;;5070956;28;21254;-49
2021/01/09 10:31:57;;;;;;;12.87;10.00;;;10.90;59.30;;;;;;5094378;28;21141;-50
2021/01/09 10:34:24;;;;;;;10.03;8.90;;;11.00;58.70;;;;;;5108361;28;20695;-49
2021/01/09 10:36:50;;;;;;;10.67;9.40;;;11.00;57.90;;;;;;5082750;28;21203;-49
2021/01/09 10:39:17;;;;;;;9.10;8.20;;;10.90;57.40;;;;;;5091278;28;20627;-49
2021/01/09 10:41:44;;;;;;;11.20;10.13;;;10.60;57.10;;;;;;5075841;28;20633;-49
2021/01/09 10:44:11;;;;;;;13.20;11.03;;;10.40;58.00;;;;;;5071039;28;20682;-50
2021/01/09 10:46:38;;;;;;;10.23;9.03;;;10.20;57.90;;;;;;5070776;28;20726;-49
2021/01/09 10:49:05;;;;;;;9.80;8.03;;;9.80;59.40;;;;;;5071048;28;20694;-51
2021/01/09 10:51:34;;;;;;;8.93;8.03;;;9.70;60.00;;;;;;5071823;28;20678;-52
2021/01/09 10:54:01;;;;;;;9.53;7.47;;;9.50;60.90;;;;;;5071352;28;20641;-51
2021/01/09 10:56:28;;;;;;;8.20;7.43;;;9.40;60.30;;;;;;5085008;28;20648;-50
2021/01/09 10:58:55;;;;;;;13.43;8.60;;;9.30;60.20;;;;;;5087716;28;20635;-51
2021/01/09 11:01:22;;;;;;;9.37;7.37;;;9.20;60.00;;;;;;5091602;28;20680;-49
2021/01/09 11:03:48;;;;;;;8.73;7.90;;;9.00;61.10;;;;;;5103495;28;20611;-49
2021/01/09 11:06:22;;;;;;;9.43;7.00;;;8.90;61.70;;;;;;5091423;28;20675;-50
2021/01/09 11:08:49;;;;;;;9.27;7.30;;;8.90;61.60;;;;;;5090433;28;20692;-48
2021/01/09 11:11:16;;;;;;;7.50;6.80;;;8.80;61.00;;;;;;5073075;28;20628;-48
2021/01/09 11:13:42;;;;;;;8.67;6.97;;;8.80;60.30;;;;;;5090803;28;20737;-48
2021/01/09 11:16:09;;;;;;;8.97;8.07;;;8.70;60.50;;;;;;5090355;28;20660;-49
2021/01/09 11:18:36;;;;;;;8.67;6.83;;;8.60;60.80;;;;;;5090485;28;20654;-48
2021/01/09 11:21:03;;;;;;;8.03;6.37;;;8.50;60.70;;;;;;5091304;28;20628;-47
2021/01/09 11:23:30;;;;;;;8.67;7.87;;;8.50;61.30;;;;;;5090710;28;21261;-47
2021/01/09 11:25:57;;;;;;;9.43;8.10;;;8.40;61.70;;;;;;5091198;28;20675;-48
2021/01/09 11:28:24;;;;;;;9.53;8.47;;;8.40;62.00;;;;;;5090638;28;21257;-48
2021/01/09 11:30:51;;;;;;;10.40;8.13;;;8.50;62.00;;;;;;5090156;28;20636;-48
2021/01/09 11:33:17;;;;;;;8.13;6.90;;;8.50;62.00;;;;;;5090322;28;20800;-48
2021/01/09 11:35:44;;;;;;;8.17;6.73;;;8.60;61.90;;;;;;5090469;28;20664;-48
2021/01/09 11:38:11;;;;;;;9.33;8.27;;;8.70;61.70;;;;;;5090576;28;20708;-48
2021/01/09 11:40:38;;;;;;;9.70;8.53;;;8.80;61.20;;;;;;5090533;28;20631;-49
2021/01/09 11:43:05;;;;;;;7.57;6.70;;;8.80;60.70;;;;;;5085702;28;20621;-49
2021/01/09 11:45:32;;;;;;;8.53;6.23;;;8.90;61.10;;;;;;5070150;28;20633;-49
2021/01/09 11:47:59;;;;;;;9.50;7.70;;;8.80;60.30;;;;;;5070815;28;20676;-48
2021/01/09 11:50:25;;;;;;;9.37;7.70;;;8.80;60.00;;;;;;5090681;28;20686;-48
2021/01/09 11:52:52;;;;;;;9.70;8.60;;;8.70;60.80;;;;;;5089952;28;20661;-49
2021/01/09 11:55:19;;;;;;;8.23;7.10;;;8.60;61.70;;;;;;5090898;28;20926;-49
2021/01/09 11:57:47;;;;;;;6.40;5.80;;;8.60;61.60;;;;;;5092283;28;20628;-50
2021/01/09 12:00:14;;;;;;;6.30;5.53;;;8.60;59.80;;;;;;5088621;28;20667;-48
2021/01/09 12:02:41;;;;;;;10.40;6.80;;;8.50;59.20;;;;;;5081020;28;20685;-47
2021/01/09 12:05:09;;;;;;;8.10;5.70;;;8.40;58.70;;;;;;5069748;28;20745;-48
2021/01/09 12:07:36;;;;;;;5.33;4.73;;;8.40;58.80;;;;;;5081236;28;20675;-48
2021/01/09 12:10:03;;;;;;;6.20;5.60;;;8.50;58.80;;;;;;5090433;28;21010;-48
2021/01/09 12:12:30;;;;;;;6.67;5.57;;;8.50;58.60;;;;;;5089954;28;20612;-50
2021/01/09 12:14:58;;;;;;;5.67;5.10;;;8.50;58.30;;;;;;5090467;28;20670;-51
2021/01/09 12:17:25;;;;;;;7.63;4.83;;;8.50;58.40;;;;;;5088993;28;20745;-50
2021/01/09 12:19:52;;;;;;;6.37;5.50;;;8.50;58.50;;;;;;5092362;28;20801;-52
2021/01/09 12:22:19;;;;;;;5.73;5.10;;;8.50;58.60;;;;;;5089117;28;20692;-49
2021/01/09 12:24:46;;;;;;;6.50;5.00;;;8.50;58.40;;;;;;5090177;28;20631;-50
2021/01/09 12:27:14;;;;;;;6.30;5.70;;;8.50;58.40;;;;;;5090415;28;20656;-50
2021/01/09 12:29:40;;;;;;;7.73;5.40;;;8.50;58.50;;;;;;5090403;28;21179;-52
2021/01/09 12:32:08;;;;;;;5.87;5.40;;;8.50;59.90;;;;;;5098018;28;20661;-52
2021/01/09 12:34:35;;;;;;;7.40;5.57;;;8.50;61.10;;;;;;5085799;28;20995;-51
2021/01/09 12:37:02;;;;;;;6.13;5.53;;;8.50;59.70;;;;;;5088650;28;20648;-51
2021/01/09 12:39:28;;;;;;;6.07;5.47;;;8.50;59.70;;;;;;5070458;28;20614;-49
2021/01/09 12:41:55;;;;;;;6.33;5.70;;;8.50;59.90;;;;;;5068982;28;20624;-52
2021/01/09 12:44:22;;;;;;;5.70;5.10;;;8.40;58.40;;;;;;5069461;28;21034;-51